createdAt,value
2018-08-07T00:00:25.264Z,4.87
2018-08-07T00:02:54.199Z,3.07
2018-08-07T00:05:23.170Z,2.17
2018-08-07T00:07:53.271Z,2.50
2018-08-07T00:10:23.642Z,2.40
2018-08-07T00:12:52.415Z,3.27
2018-08-07T00:15:22.628Z,1.97
2018-08-07T00:17:51.529Z,1.90
2018-08-07T00:20:20.453Z,2.33
2018-08-07T00:22:49.338Z,1.93
2018-08-07T00:25:18.193Z,2.67
2018-08-07T00:27:47.067Z,2.17
2018-08-07T00:30:16.802Z,2.47
2018-08-07T00:32:46.040Z,3.03
2018-08-07T00:35:19.218Z,2.00
2018-08-07T00:37:48.499Z,4.03
2018-08-07T00:40:18.438Z,2.50
2018-08-07T00:42:47.941Z,2.27
2018-08-07T00:45:20.062Z,2.93
2018-08-07T00:47:49.392Z,3.27
2018-08-07T00:50:20.624Z,2.40
2018-08-07T00:52:50.280Z,2.43
2018-08-07T00:55:19.924Z,6.20
2018-08-07T00:57:49.491Z,2.53
2018-08-07T01:00:18.583Z,4.12
2018-08-07T01:02:47.499Z,2.77
2018-08-07T01:05:17.413Z,2.13
2018-08-07T01:07:46.315Z,2.40
2018-08-07T01:10:16.638Z,2.90
2018-08-07T01:12:45.553Z,2.13
2018-08-07T01:15:17.264Z,2.53
2018-08-07T01:17:46.585Z,2.40
2018-08-07T01:20:16.790Z,2.77
2018-08-07T01:22:45.868Z,2.57
2018-08-07T01:25:17.648Z,4.62
2018-08-07T01:27:46.557Z,2.67
2018-08-07T01:30:18.106Z,2.47
2018-08-07T01:32:47.103Z,2.87
2018-08-07T01:35:16.001Z,3.45
2018-08-07T01:37:44.891Z,2.53
2018-08-07T01:40:13.792Z,2.50
2018-08-07T01:42:42.829Z,2.33
2018-08-07T01:45:11.931Z,2.20
2018-08-07T01:47:41.276Z,2.40
2018-08-07T01:50:12.569Z,2.27
2018-08-07T01:52:41.424Z,2.53
2018-08-07T01:55:13.784Z,3.37
2018-08-07T01:57:42.674Z,3.50
2018-08-07T02:00:12.826Z,3.60
2018-08-07T02:02:41.733Z,2.40
2018-08-07T02:05:12.067Z,2.57
2018-08-07T02:07:41.902Z,2.80
2018-08-07T02:10:13.153Z,2.73
2018-08-07T02:12:42.020Z,2.20
2018-08-07T02:15:11.786Z,2.98
2018-08-07T02:17:40.675Z,3.27
2018-08-07T02:20:11.823Z,3.50
2018-08-07T02:22:41.380Z,3.20
2018-08-07T02:25:12.529Z,4.25
2018-08-07T02:27:41.530Z,2.80
2018-08-07T02:30:11.804Z,3.17
2018-08-07T02:32:40.926Z,3.10
2018-08-07T02:35:11.325Z,3.08
2018-08-07T02:37:40.926Z,3.40
2018-08-07T02:40:10.852Z,2.70
2018-08-07T02:42:39.801Z,3.43
2018-08-07T02:45:10.967Z,3.23
2018-08-07T02:47:40.444Z,5.60
2018-08-07T02:50:10.594Z,2.73
2018-08-07T02:52:39.597Z,2.80
2018-08-07T02:55:09.820Z,2.90
2018-08-07T02:57:39.292Z,2.87
2018-08-07T03:00:11.062Z,2.70
2018-08-07T03:02:39.929Z,2.63
2018-08-07T03:05:09.671Z,2.83
2018-08-07T03:07:38.993Z,3.83
2018-08-07T03:10:09.010Z,5.73
2018-08-07T03:12:38.211Z,3.60
2018-08-07T03:15:11.193Z,3.50
2018-08-07T03:17:40.183Z,5.30
2018-08-07T03:20:09.377Z,3.22
2018-08-07T03:22:38.828Z,2.80
2018-08-07T03:25:09.315Z,2.30
2018-08-07T03:27:38.264Z,3.93
2018-08-07T03:30:09.534Z,3.30
2018-08-07T03:32:38.494Z,3.37
2018-08-07T03:35:07.747Z,3.23
2018-08-07T03:37:37.415Z,2.53
2018-08-07T03:40:08.424Z,3.50
2018-08-07T03:42:37.379Z,2.87
2018-08-07T03:45:07.086Z,3.30
2018-08-07T03:47:36.219Z,2.77
2018-08-07T03:50:05.832Z,2.97
2018-08-07T03:52:34.936Z,3.23
2018-08-07T03:55:07.806Z,2.70
2018-08-07T03:57:36.782Z,2.93
2018-08-07T04:00:08.865Z,3.67
2018-08-07T04:02:37.804Z,3.00
2018-08-07T04:05:07.164Z,4.87
2018-08-07T04:07:36.489Z,3.07
2018-08-07T04:10:06.350Z,3.53
2018-08-07T04:12:35.329Z,3.10
2018-08-07T04:15:06.466Z,3.53
2018-08-07T04:17:35.522Z,3.33
2018-08-07T04:20:06.623Z,4.03
2018-08-07T04:22:35.533Z,4.43
2018-08-07T04:25:05.205Z,6.00
2018-08-07T04:27:34.102Z,4.43
2018-08-07T04:30:03.114Z,4.13
2018-08-07T04:32:32.054Z,3.53
2018-08-07T04:35:00.958Z,4.37
2018-08-07T04:37:29.830Z,3.30
2018-08-07T04:39:58.998Z,4.60
2018-08-07T04:42:27.872Z,3.50
2018-08-07T04:44:56.872Z,5.67
2018-08-07T04:47:25.794Z,3.83
2018-08-07T04:49:54.681Z,5.97
2018-08-07T04:52:23.593Z,3.73
2018-08-07T04:54:52.482Z,3.50
2018-08-07T04:57:21.348Z,3.60
2018-08-07T04:59:50.186Z,3.97
2018-08-07T05:02:19.107Z,9.57
2018-08-07T05:04:48.031Z,10.67
2018-08-07T05:07:17.278Z,3.90
2018-08-07T05:09:46.676Z,8.50
2018-08-07T05:12:15.649Z,4.50
2018-08-07T05:14:44.548Z,5.73
2018-08-07T05:17:13.412Z,5.72
2018-08-07T05:19:42.411Z,4.23
2018-08-07T05:22:11.296Z,4.63
2018-08-07T05:24:40.151Z,6.83
2018-08-07T05:27:08.998Z,6.43
2018-08-07T05:29:37.862Z,9.70
2018-08-07T05:32:06.798Z,10.73
2018-08-07T05:34:35.725Z,10.60
2018-08-07T05:37:04.957Z,18.30
2018-08-07T05:39:33.926Z,35.90
2018-08-07T05:42:02.833Z,56.50
2018-08-07T05:44:31.753Z,40.13
2018-08-07T05:47:01.149Z,32.43
2018-08-07T05:49:30.230Z,113.30
2018-08-07T05:51:59.410Z,77.20
2018-08-07T05:54:28.589Z,35.83
2018-08-07T05:56:57.621Z,24.47
2018-08-07T05:59:26.524Z,28.73
2018-08-07T06:01:55.523Z,32.37
2018-08-07T06:04:24.394Z,26.90
2018-08-07T06:06:53.337Z,20.13
2018-08-07T06:09:22.247Z,32.03
2018-08-07T06:11:51.769Z,13.13
2018-08-07T06:14:20.668Z,18.30
2018-08-07T06:16:49.643Z,10.17
2018-08-07T06:19:18.589Z,11.80
2018-08-07T06:21:47.536Z,13.67
2018-08-07T06:24:16.594Z,15.63
2018-08-07T06:26:45.545Z,11.07
2018-08-07T06:29:14.486Z,15.20
2018-08-07T06:31:43.346Z,14.23
2018-08-07T06:34:12.307Z,10.37
2018-08-07T06:36:41.195Z,12.63
2018-08-07T06:39:10.350Z,7.87
2018-08-07T06:41:39.257Z,16.00
2018-08-07T06:44:08.137Z,5.50
2018-08-07T06:46:39.330Z,9.47
2018-08-07T06:49:08.864Z,8.50
2018-08-07T06:51:37.756Z,6.53
2018-08-07T06:54:07.437Z,11.50
2018-08-07T06:56:36.385Z,9.57
2018-08-07T06:59:05.765Z,5.03
2018-08-07T07:01:34.765Z,4.27
2018-08-07T07:04:03.785Z,7.43
2018-08-07T07:06:32.690Z,5.03
2018-08-07T07:09:01.560Z,5.07
2018-08-07T07:11:30.415Z,9.90
2018-08-07T07:13:59.371Z,6.87
2018-08-07T07:16:28.249Z,8.77
2018-08-07T07:18:57.099Z,4.23
2018-08-07T07:21:25.999Z,6.20
2018-08-07T07:23:54.921Z,7.93
2018-08-07T07:26:23.865Z,6.57
2018-08-07T07:28:52.791Z,4.37
2018-08-07T07:31:21.701Z,4.00
2018-08-07T07:33:50.682Z,8.27
2018-08-07T07:36:19.710Z,3.62
2018-08-07T07:38:48.680Z,3.97
2018-08-07T07:41:17.611Z,6.03
2018-08-07T07:43:46.565Z,3.30
2018-08-07T07:46:15.417Z,2.87
2018-08-07T07:48:44.333Z,5.57
2018-08-07T07:51:13.227Z,4.87
2018-08-07T07:53:42.607Z,4.33
2018-08-07T07:56:11.800Z,3.30
2018-08-07T07:58:40.730Z,3.37
2018-08-07T08:01:10.093Z,3.00
2018-08-07T08:03:39.497Z,4.10
2018-08-07T08:06:08.495Z,9.07
2018-08-07T08:08:37.486Z,3.23
2018-08-07T08:11:06.363Z,2.90
2018-08-07T08:13:35.141Z,4.77
2018-08-07T08:16:04.682Z,3.13
2018-08-07T08:18:33.558Z,6.00
2018-08-07T08:21:02.414Z,4.20
2018-08-07T08:23:31.335Z,3.40
2018-08-07T08:26:00.183Z,3.27
2018-08-07T08:28:29.463Z,6.30
2018-08-07T08:30:58.340Z,3.97
2018-08-07T08:33:27.224Z,3.33
2018-08-07T08:35:56.064Z,2.80
2018-08-07T08:38:24.912Z,2.17
2018-08-07T08:40:54.581Z,2.33
2018-08-07T08:43:23.408Z,3.60
2018-08-07T08:45:52.316Z,2.23
2018-08-07T08:48:21.255Z,2.53
2018-08-07T08:50:50.149Z,2.40
2018-08-07T08:53:19.042Z,2.50
2018-08-07T08:55:48.476Z,2.67
2018-08-07T08:58:17.353Z,2.30
2018-08-07T09:00:46.217Z,2.10
2018-08-07T09:03:15.220Z,2.40
2018-08-07T09:08:19.337Z,3.30
2018-08-07T09:10:48.435Z,2.23
2018-08-07T09:13:17.167Z,3.17
2018-08-07T09:15:46.103Z,2.00
2018-08-07T09:18:14.949Z,2.60
2018-08-07T09:20:43.835Z,4.17
2018-08-07T09:23:12.712Z,2.10
2018-08-07T09:25:41.676Z,2.10
2018-08-07T09:28:10.504Z,3.97
2018-08-07T09:30:39.402Z,3.10
2018-08-07T09:33:08.427Z,2.90
2018-08-07T09:35:37.318Z,2.70
2018-08-07T09:38:08.080Z,2.17
2018-08-07T09:40:36.924Z,2.27
2018-08-07T09:43:06.027Z,2.10
2018-08-07T09:45:35.834Z,1.80
2018-08-07T09:48:09.671Z,3.13
2018-08-07T09:50:38.787Z,2.00
2018-08-07T09:53:07.859Z,2.43
2018-08-07T09:55:36.778Z,1.97
2018-08-07T09:58:05.976Z,2.47
2018-08-07T10:00:40.099Z,1.80
2018-08-07T10:03:12.059Z,3.67
2018-08-07T10:05:41.793Z,2.07
2018-08-07T10:08:10.654Z,1.80
2018-08-07T10:10:39.487Z,1.93
2018-08-07T10:13:08.421Z,3.13
2018-08-07T10:15:37.280Z,3.98
2018-08-07T10:18:06.236Z,2.15
2018-08-07T10:20:36.051Z,2.42
2018-08-07T10:23:04.973Z,2.08
2018-08-07T10:25:33.907Z,5.22
2018-08-07T10:28:02.849Z,3.22
2018-08-07T10:30:31.738Z,1.95
2018-08-07T10:33:00.649Z,3.02
2018-08-07T10:35:29.577Z,3.77
2018-08-07T10:37:58.412Z,5.58
2018-08-07T10:40:28.024Z,2.42
2018-08-07T10:42:56.910Z,2.12
2018-08-07T10:45:26.536Z,3.10
2018-08-07T10:47:55.381Z,2.75
2018-08-07T10:50:25.591Z,2.20
2018-08-07T10:52:54.602Z,2.60
2018-08-07T10:55:24.113Z,2.00
2018-08-07T10:57:54.395Z,3.17
2018-08-07T11:00:25.202Z,2.03
2018-08-07T11:02:54.555Z,2.27
2018-08-07T11:05:24.108Z,3.35
2018-08-07T11:07:52.997Z,2.17
2018-08-07T11:10:22.456Z,2.17
2018-08-07T11:12:51.584Z,2.62
2018-08-07T11:15:25.003Z,2.23
2018-08-07T11:17:55.073Z,2.67
2018-08-07T11:20:23.923Z,2.90
2018-08-07T11:22:54.113Z,2.75
2018-08-07T11:25:24.281Z,2.95
2018-08-07T11:27:53.180Z,3.45
2018-08-07T11:30:24.406Z,3.90
2018-08-07T11:32:54.374Z,2.30
2018-08-07T11:35:23.976Z,2.55
2018-08-07T11:37:54.445Z,2.98
2018-08-07T11:40:24.173Z,4.05
2018-08-07T11:42:53.782Z,4.78
2018-08-07T11:45:24.755Z,2.50
2018-08-07T11:47:53.744Z,2.58
2018-08-07T11:50:25.120Z,2.57
2018-08-07T11:52:54.025Z,2.80
2018-08-07T11:55:23.713Z,3.37
2018-08-07T11:57:53.401Z,2.45
2018-08-07T12:00:26.948Z,3.58
2018-08-07T12:02:55.582Z,2.33
2018-08-07T12:05:25.041Z,2.55
2018-08-07T12:07:54.202Z,2.77
2018-08-07T12:10:23.128Z,2.75
2018-08-07T12:12:52.041Z,2.67
2018-08-07T12:15:23.827Z,2.77
2018-08-07T12:17:52.808Z,3.37
2018-08-07T12:20:21.886Z,2.98
2018-08-07T12:22:51.432Z,3.85
2018-08-07T12:25:20.937Z,2.60
2018-08-07T12:27:51.071Z,3.58
2018-08-07T12:30:24.399Z,2.50
2018-08-07T12:32:53.301Z,2.72
2018-08-07T12:35:22.213Z,3.60
2018-08-07T12:37:52.016Z,2.87
2018-08-07T12:40:24.464Z,2.83
2018-08-07T12:42:56.070Z,2.95
2018-08-07T12:45:25.088Z,2.92
2018-08-07T12:47:54.704Z,5.47
2018-08-07T12:50:23.540Z,2.67
2018-08-07T12:52:52.519Z,2.58
2018-08-07T12:55:22.398Z,2.58
2018-08-07T12:57:52.169Z,5.25
2018-08-07T13:00:23.259Z,2.33
2018-08-07T13:02:52.165Z,8.97
2018-08-07T13:05:21.152Z,2.85
2018-08-07T13:07:50.105Z,3.08
2018-08-07T13:10:20.531Z,2.85
2018-08-07T13:12:50.289Z,2.50
2018-08-07T13:15:20.247Z,2.97
2018-08-07T13:17:49.540Z,2.72
2018-08-07T13:20:18.400Z,2.52
2018-08-07T13:22:48.028Z,2.92
2018-08-07T13:25:19.417Z,2.87
2018-08-07T13:27:48.284Z,2.80
2018-08-07T13:30:22.709Z,2.60
2018-08-07T13:32:51.661Z,2.67
2018-08-07T13:35:20.538Z,2.73
2018-08-07T13:37:50.960Z,2.47
2018-08-07T13:40:21.461Z,2.80
2018-08-07T13:42:50.544Z,2.70
2018-08-07T13:45:22.652Z,2.85
2018-08-07T13:47:51.597Z,2.80
2018-08-07T13:50:22.683Z,3.40
2018-08-07T13:52:51.985Z,2.55
2018-08-07T13:55:22.250Z,2.72
2018-08-07T13:57:51.145Z,2.70
2018-08-07T14:00:28.196Z,2.30
2018-08-07T14:02:57.937Z,2.75
2018-08-07T14:05:27.362Z,2.40
2018-08-07T14:07:56.956Z,4.00
2018-08-07T14:10:27.125Z,2.75
2018-08-07T14:12:56.304Z,2.55
2018-08-07T14:15:26.726Z,2.80
2018-08-07T14:17:55.629Z,3.83
2018-08-07T14:20:24.645Z,3.17
2018-08-07T14:22:53.514Z,2.58
2018-08-07T14:25:24.167Z,2.58
2018-08-07T14:27:53.771Z,2.22
2018-08-07T14:30:24.950Z,2.57
2018-08-07T14:32:53.891Z,2.40
2018-08-07T14:35:23.425Z,2.35
2018-08-07T14:37:54.092Z,2.90
2018-08-07T14:40:24.436Z,3.12
2018-08-07T14:42:53.702Z,2.65
2018-08-07T14:45:24.650Z,3.67
2018-08-07T14:47:54.167Z,2.60
2018-08-07T14:50:25.128Z,2.58
2018-08-07T14:52:54.196Z,2.90
2018-08-07T14:55:23.217Z,2.52
2018-08-07T14:57:52.586Z,2.92
2018-08-07T15:00:23.360Z,2.52
2018-08-07T15:02:53.567Z,2.62
2018-08-07T15:05:22.557Z,2.70
2018-08-07T15:07:52.813Z,3.25
2018-08-07T15:10:24.201Z,3.00
2018-08-07T15:12:56.456Z,4.92
2018-08-07T15:15:29.686Z,2.62
2018-08-07T15:17:59.181Z,3.30
2018-08-07T15:20:29.722Z,2.55
2018-08-07T15:22:58.834Z,2.42
2018-08-07T15:25:27.667Z,2.60
2018-08-07T15:27:56.970Z,3.17
2018-08-07T15:30:26.931Z,2.75
2018-08-07T15:32:56.421Z,3.15
2018-08-07T15:35:27.223Z,3.40
2018-08-07T15:37:56.111Z,3.22
2018-08-07T15:40:25.049Z,3.40
2018-08-07T15:42:54.660Z,3.12
2018-08-07T15:45:24.737Z,3.17
2018-08-07T15:47:53.914Z,3.00
2018-08-07T15:50:23.792Z,2.90
2018-08-07T15:52:55.540Z,3.02
2018-08-07T15:55:25.954Z,2.27
2018-08-07T15:57:54.866Z,2.87
2018-08-07T16:00:27.523Z,2.77
2018-08-07T16:02:56.385Z,2.60
2018-08-07T16:05:25.244Z,2.83
2018-08-07T16:07:55.030Z,3.00
2018-08-07T16:10:23.927Z,3.10
2018-08-07T16:12:53.904Z,2.40
2018-08-07T16:15:22.983Z,2.23
2018-08-07T16:17:52.832Z,2.85
2018-08-07T16:20:22.173Z,2.52
2018-08-07T16:22:50.998Z,2.47
2018-08-07T16:25:20.763Z,3.00
2018-08-07T16:27:50.169Z,3.00
2018-08-07T16:30:22.393Z,2.25
2018-08-07T16:32:51.114Z,3.70
2018-08-07T16:35:19.944Z,2.85
2018-08-07T16:37:49.155Z,2.87
2018-08-07T16:40:19.545Z,2.70
2018-08-07T16:42:49.220Z,2.42
2018-08-07T16:45:19.283Z,2.80
2018-08-07T16:47:48.234Z,2.35
2018-08-07T16:50:20.118Z,2.58
2018-08-07T16:52:50.054Z,2.58
2018-08-07T16:55:18.907Z,3.00
2018-08-07T16:57:47.752Z,3.77
2018-08-07T17:00:16.617Z,2.67
2018-08-07T17:02:45.677Z,2.75
2018-08-07T17:05:15.849Z,2.27
2018-08-07T17:07:45.903Z,2.37
2018-08-07T17:10:18.157Z,2.27
2018-08-07T17:12:47.775Z,2.10
2018-08-07T17:15:16.676Z,2.70
2018-08-07T17:17:45.884Z,2.08
2018-08-07T17:20:16.396Z,2.22
2018-08-07T17:22:45.462Z,2.12
2018-08-07T17:25:17.620Z,2.83
2018-08-07T17:27:47.493Z,2.40
2018-08-07T17:30:20.046Z,3.25
2018-08-07T17:32:48.983Z,3.05
2018-08-07T17:35:21.124Z,2.22
2018-08-07T17:37:51.404Z,2.25
2018-08-07T17:40:21.689Z,4.53
2018-08-07T17:42:50.548Z,2.98
2018-08-07T17:45:19.429Z,3.35
2018-08-07T17:47:48.676Z,2.67
2018-08-07T17:50:19.799Z,3.37
2018-08-07T17:52:48.678Z,2.63
2018-08-07T17:55:17.712Z,2.30
2018-08-07T17:57:47.083Z,2.73
2018-08-07T18:00:17.163Z,3.07
2018-08-07T18:02:46.403Z,2.30
2018-08-07T18:05:15.391Z,2.80
2018-08-07T18:07:46.419Z,2.50
2018-08-07T18:10:16.992Z,2.97
2018-08-07T18:12:45.931Z,2.93
2018-08-07T18:15:16.047Z,4.72
2018-08-07T18:17:45.478Z,2.47
2018-08-07T18:20:18.518Z,3.30
2018-08-07T18:22:47.361Z,3.10
2018-08-07T18:25:16.293Z,2.83
2018-08-07T18:27:45.153Z,2.60
2018-08-07T18:30:15.741Z,2.70
2018-08-07T18:32:44.808Z,2.90
2018-08-07T18:35:19.296Z,2.80
2018-08-07T18:37:49.339Z,6.17
2018-08-07T18:40:18.370Z,4.70
2018-08-07T18:42:47.271Z,2.80
2018-08-07T18:45:16.237Z,3.53
2018-08-07T18:47:45.687Z,3.13
2018-08-07T18:50:16.740Z,2.70
2018-08-07T18:52:45.618Z,2.47
2018-08-07T18:55:14.876Z,3.47
2018-08-07T18:57:44.799Z,3.10
2018-08-07T19:00:15.697Z,7.43
2018-08-07T19:02:44.562Z,2.53
2018-08-07T19:05:15.116Z,3.10
2018-08-07T19:07:47.197Z,2.73
2018-08-07T19:10:17.418Z,2.80
2018-08-07T19:12:47.145Z,4.17
2018-08-07T19:15:17.683Z,2.97
2018-08-07T19:17:46.619Z,2.77
2018-08-07T19:20:17.619Z,5.23
2018-08-07T19:22:47.008Z,3.47
2018-08-07T19:25:15.928Z,4.80
2018-08-07T19:27:44.834Z,3.07
2018-08-07T19:30:15.484Z,3.92
2018-08-07T19:32:44.383Z,3.07
2018-08-07T19:35:13.659Z,4.57
2018-08-07T19:37:42.922Z,3.33
2018-08-07T19:40:14.635Z,5.30
2018-08-07T19:42:44.748Z,3.27
2018-08-07T19:45:14.622Z,3.17
2018-08-07T19:47:44.482Z,2.73
2018-08-07T19:50:14.839Z,8.25
2018-08-07T19:52:43.805Z,4.43
2018-08-07T19:55:15.344Z,2.87
2018-08-07T19:57:44.502Z,6.67
2018-08-07T20:00:18.360Z,2.97
2018-08-07T20:02:47.684Z,2.83
2018-08-07T20:05:16.737Z,2.87
2018-08-07T20:07:45.860Z,3.40
2018-08-07T20:10:15.894Z,5.37
2018-08-07T20:12:44.865Z,3.80
2018-08-07T20:15:19.345Z,5.63
2018-08-07T20:17:48.592Z,3.40
2018-08-07T20:20:49.304Z,5.00
2018-08-07T20:23:18.183Z,8.27
2018-08-07T20:25:47.075Z,4.80
2018-08-07T20:28:16.320Z,3.90
2018-08-07T20:30:45.348Z,6.00
2018-08-07T20:33:14.415Z,5.27
2018-08-07T20:35:43.537Z,3.23
2018-08-07T20:38:12.568Z,3.20
2018-08-07T20:40:41.918Z,3.83
2018-08-07T20:43:10.838Z,4.43
2018-08-07T20:45:39.763Z,4.33
2018-08-07T20:48:08.820Z,4.13
2018-08-07T20:50:37.736Z,4.13
2018-08-07T20:53:06.683Z,6.97
2018-08-07T20:55:36.291Z,4.40
2018-08-07T20:58:05.208Z,3.23
2018-08-07T21:00:34.104Z,5.03
2018-08-07T21:03:03.259Z,5.37
2018-08-07T21:05:32.128Z,5.53
2018-08-07T21:08:01.675Z,4.23
2018-08-07T21:10:32.298Z,5.00
2018-08-07T21:13:01.137Z,3.17
2018-08-07T21:15:30.551Z,2.80
2018-08-07T21:17:59.399Z,4.93
2018-08-07T21:20:28.339Z,3.10
2018-08-07T21:22:57.203Z,7.00
2018-08-07T21:25:26.024Z,3.53
2018-08-07T21:27:56.581Z,4.23
2018-08-07T21:30:28.296Z,3.70
2018-08-07T21:32:57.136Z,3.47
2018-08-07T21:35:25.985Z,4.37
2018-08-07T21:37:55.245Z,4.57
2018-08-07T21:40:24.756Z,3.60
2018-08-07T21:42:55.038Z,5.63
2018-08-07T21:45:23.923Z,3.00
2018-08-07T21:47:52.769Z,3.73
2018-08-07T21:50:23.896Z,2.17
2018-08-07T21:52:52.764Z,3.27
2018-08-07T21:55:21.680Z,5.13
2018-08-07T21:57:50.580Z,4.40
2018-08-07T22:00:26.628Z,2.90
2018-08-07T22:02:55.513Z,3.13
2018-08-07T22:05:24.372Z,5.47
2018-08-07T22:07:58.936Z,3.53
2018-08-07T22:10:27.867Z,4.27
2018-08-07T22:12:56.711Z,3.90
2018-08-07T22:15:25.556Z,2.63
2018-08-07T22:17:54.659Z,3.87
2018-08-07T22:20:23.555Z,6.75
2018-08-07T22:22:52.953Z,6.60
2018-08-07T22:25:22.179Z,2.90
2018-08-07T22:27:51.085Z,4.10
2018-08-07T22:30:21.319Z,4.30
2018-08-07T22:32:51.205Z,3.20
2018-08-07T22:35:20.792Z,2.97
2018-08-07T22:37:55.162Z,3.33
2018-08-07T22:40:24.108Z,4.27
2018-08-07T22:42:53.116Z,3.13
2018-08-07T22:45:22.682Z,6.07
2018-08-07T22:47:51.684Z,2.93
2018-08-07T22:50:20.606Z,7.33
2018-08-07T22:52:49.613Z,5.67
2018-08-07T22:55:19.713Z,3.00
2018-08-07T22:57:48.616Z,3.83
2018-08-07T23:00:18.979Z,2.80
2018-08-07T23:02:48.541Z,2.93
2018-08-07T23:05:18.247Z,3.40
2018-08-07T23:07:47.426Z,5.87
2018-08-07T23:10:19.096Z,3.63
2018-08-07T23:12:47.968Z,3.63
2018-08-07T23:15:18.421Z,3.90
2018-08-07T23:17:47.653Z,5.97
2018-08-07T23:20:17.857Z,4.57
2018-08-07T23:22:46.736Z,8.45
2018-08-07T23:25:15.945Z,14.03
2018-08-07T23:27:44.816Z,4.17
2018-08-07T23:30:15.495Z,4.80
2018-08-07T23:32:44.369Z,4.67
2018-08-07T23:35:14.069Z,5.57
2018-08-07T23:37:42.962Z,2.80
2018-08-07T23:40:12.835Z,2.97
2018-08-07T23:42:42.323Z,4.07
2018-08-07T23:45:13.395Z,3.23
2018-08-07T23:47:42.302Z,3.43
2018-08-07T23:50:12.328Z,4.80
2018-08-07T23:52:41.305Z,4.27
2018-08-07T23:55:10.465Z,3.27
2018-08-07T23:57:39.448Z,4.83
